VEPU weather

Purnea Airport
Bihar, India

Public forecast

Using degrees Celsius for public forecast. Weather courtesy of forecast.io.

METAR (pilot weather report)

Report is more than 2 hours old.

Closest report is Bagdogra Airport, 74.2 nm (137.5 km) NE. Retrieved 2019/07/23 03:30 UTC (3 hours ago):

VEBD 230330Z VRB02KT 4000 BR-RA FEW005 SCT012 BKN080 28/25 Q1003 BECMG 5000

TAF (pilot weather forecast)

Closest forecast is Bagdogra Airport, 74.2 nm (137.5 km) NE. Retrieved 2019/07/23 06:30 UTC (0 seconds ago):

TAF VEBD 230330Z 2306/2318 14008KT 6000 SCT015 SCT025 BKN080 TEMPO 2309/2312 3000 TSRA SCT008 FEW030CB BKN080 TEMPO 2315/2318 2000 TSRA SCT008 FEW030CB BKN090